sensor_id;sensor_type;location;lat;lon;timestamp;P1;durP1;ratioP1;P2;durP2;ratioP2
15669;SDS011;18524;45.190;5.732;2023-02-21T00:04:47;14.40;;;11.67;;
15669;SDS011;18524;45.190;5.732;2023-02-21T00:09:56;14.23;;;11.90;;
15669;SDS011;18524;45.190;5.732;2023-02-21T00:15:05;16.43;;;12.47;;
15669;SDS011;18524;45.190;5.732;2023-02-21T00:20:14;14.63;;;12.60;;
15669;SDS011;18524;45.190;5.732;2023-02-21T00:25:23;15.30;;;12.60;;
15669;SDS011;18524;45.190;5.732;2023-02-21T00:30:32;14.03;;;12.10;;
15669;SDS011;18524;45.190;5.732;2023-02-21T00:35:41;14.90;;;11.97;;
15669;SDS011;18524;45.190;5.732;2023-02-21T00:40:50;14.47;;;12.47;;
15669;SDS011;18524;45.190;5.732;2023-02-21T00:45:59;15.83;;;12.27;;
15669;SDS011;18524;45.190;5.732;2023-02-21T00:51:08;15.00;;;11.97;;
15669;SDS011;18524;45.190;5.732;2023-02-21T00:56:17;16.43;;;12.63;;
15669;SDS011;18524;45.190;5.732;2023-02-21T01:01:26;15.23;;;12.40;;
15669;SDS011;18524;45.190;5.732;2023-02-21T01:06:35;12.47;;;11.17;;
15669;SDS011;18524;45.190;5.732;2023-02-21T01:11:44;11.23;;;9.37;;
15669;SDS011;18524;45.190;5.732;2023-02-21T01:16:53;11.87;;;9.40;;
15669;SDS011;18524;45.190;5.732;2023-02-21T01:22:02;9.63;;;8.73;;
15669;SDS011;18524;45.190;5.732;2023-02-21T01:27:12;9.13;;;8.00;;
15669;SDS011;18524;45.190;5.732;2023-02-21T01:32:20;9.20;;;8.13;;
15669;SDS011;18524;45.190;5.732;2023-02-21T01:37:29;8.93;;;8.03;;
15669;SDS011;18524;45.190;5.732;2023-02-21T01:42:38;10.10;;;8.20;;
15669;SDS011;18524;45.190;5.732;2023-02-21T01:47:47;10.27;;;8.00;;
15669;SDS011;18524;45.190;5.732;2023-02-21T01:52:56;14.17;;;11.70;;
15669;SDS011;18524;45.190;5.732;2023-02-21T01:58:05;16.03;;;12.63;;
15669;SDS011;18524;45.190;5.732;2023-02-21T02:03:16;17.37;;;13.03;;
15669;SDS011;18524;45.190;5.732;2023-02-21T02:08:28;19.40;;;14.40;;
15669;SDS011;18524;45.190;5.732;2023-02-21T02:44:30;14.87;;;13.27;;
15669;SDS011;18524;45.190;5.732;2023-02-21T02:49:40;15.03;;;13.17;;
15669;SDS011;18524;45.190;5.732;2023-02-21T02:54:32;15.10;;;12.93;;
15669;SDS011;18524;45.190;5.732;2023-02-21T02:59:23;15.67;;;14.07;;
15669;SDS011;18524;45.190;5.732;2023-02-21T03:09:41;17.90;;;13.03;;
15669;SDS011;18524;45.190;5.732;2023-02-21T03:14:45;14.70;;;12.10;;
15669;SDS011;18524;45.190;5.732;2023-02-21T03:19:42;15.73;;;12.23;;
15669;SDS011;18524;45.190;5.732;2023-02-21T03:24:35;17.97;;;12.63;;
15669;SDS011;18524;45.190;5.732;2023-02-21T03:29:29;14.97;;;12.67;;
15669;SDS011;18524;45.190;5.732;2023-02-21T03:34:21;19.37;;;13.80;;
15669;SDS011;18524;45.190;5.732;2023-02-21T03:39:12;14.20;;;12.60;;
15669;SDS011;18524;45.190;5.732;2023-02-21T03:44:02;17.70;;;13.70;;
15669;SDS011;18524;45.190;5.732;2023-02-21T03:48:52;16.30;;;13.20;;
15669;SDS011;18524;45.190;5.732;2023-02-21T03:53:43;17.60;;;13.83;;
15669;SDS011;18524;45.190;5.732;2023-02-21T03:58:33;17.53;;;13.50;;
15669;SDS011;18524;45.190;5.732;2023-02-21T04:03:24;15.30;;;12.60;;
15669;SDS011;18524;45.190;5.732;2023-02-21T04:08:14;14.83;;;12.50;;
15669;SDS011;18524;45.190;5.732;2023-02-21T04:13:05;15.33;;;12.30;;
15669;SDS011;18524;45.190;5.732;2023-02-21T04:17:56;14.37;;;11.93;;
15669;SDS011;18524;45.190;5.732;2023-02-21T04:22:46;15.17;;;12.50;;
15669;SDS011;18524;45.190;5.732;2023-02-21T04:27:37;15.33;;;12.83;;
15669;SDS011;18524;45.190;5.732;2023-02-21T04:32:27;17.80;;;13.87;;
15669;SDS011;18524;45.190;5.732;2023-02-21T04:37:17;17.07;;;14.50;;
15669;SDS011;18524;45.190;5.732;2023-02-21T04:42:08;16.40;;;13.77;;
15669;SDS011;18524;45.190;5.732;2023-02-21T04:46:58;14.80;;;13.13;;
15669;SDS011;18524;45.190;5.732;2023-02-21T04:51:49;18.27;;;14.60;;
15669;SDS011;18524;45.190;5.732;2023-02-21T04:56:39;16.10;;;14.40;;
15669;SDS011;18524;45.190;5.732;2023-02-21T05:01:30;15.60;;;13.90;;
15669;SDS011;18524;45.190;5.732;2023-02-21T05:06:21;20.80;;;15.03;;
15669;SDS011;18524;45.190;5.732;2023-02-21T05:11:14;18.63;;;15.40;;
15669;SDS011;18524;45.190;5.732;2023-02-21T05:16:05;20.23;;;15.40;;
15669;SDS011;18524;45.190;5.732;2023-02-21T05:20:56;19.40;;;15.47;;
15669;SDS011;18524;45.190;5.732;2023-02-21T05:25:46;18.30;;;15.53;;
15669;SDS011;18524;45.190;5.732;2023-02-21T05:30:36;20.10;;;15.70;;
15669;SDS011;18524;45.190;5.732;2023-02-21T05:35:27;19.50;;;16.13;;
15669;SDS011;18524;45.190;5.732;2023-02-21T05:40:17;17.27;;;13.87;;
15669;SDS011;18524;45.190;5.732;2023-02-21T05:45:08;18.83;;;14.67;;
15669;SDS011;18524;45.190;5.732;2023-02-21T05:49:59;18.93;;;14.77;;
15669;SDS011;18524;45.190;5.732;2023-02-21T05:54:50;18.97;;;14.40;;
15669;SDS011;18524;45.190;5.732;2023-02-21T05:59:40;19.00;;;14.97;;
15669;SDS011;18524;45.190;5.732;2023-02-21T06:04:31;22.67;;;15.00;;
15669;SDS011;18524;45.190;5.732;2023-02-21T06:09:22;22.93;;;16.40;;
15669;SDS011;18524;45.190;5.732;2023-02-21T06:14:14;20.30;;;15.33;;
15669;SDS011;18524;45.190;5.732;2023-02-21T06:19:07;23.57;;;14.97;;
15669;SDS011;18524;45.190;5.732;2023-02-21T06:23:58;19.73;;;16.70;;
15669;SDS011;18524;45.190;5.732;2023-02-21T06:28:49;17.53;;;15.13;;
15669;SDS011;18524;45.190;5.732;2023-02-21T06:33:39;20.23;;;15.40;;
15669;SDS011;18524;45.190;5.732;2023-02-21T06:38:30;19.60;;;15.53;;
15669;SDS011;18524;45.190;5.732;2023-02-21T06:43:20;17.63;;;13.97;;
15669;SDS011;18524;45.190;5.732;2023-02-21T06:48:14;16.93;;;13.20;;
15669;SDS011;18524;45.190;5.732;2023-02-21T06:53:05;18.33;;;14.40;;
15669;SDS011;18524;45.190;5.732;2023-02-21T06:57:55;18.40;;;13.63;;
15669;SDS011;18524;45.190;5.732;2023-02-21T07:02:46;19.00;;;14.63;;
15669;SDS011;18524;45.190;5.732;2023-02-21T07:07:36;19.00;;;14.17;;
15669;SDS011;18524;45.190;5.732;2023-02-21T07:12:27;21.17;;;14.10;;
15669;SDS011;18524;45.190;5.732;2023-02-21T07:17:18;16.43;;;13.83;;
15669;SDS011;18524;45.190;5.732;2023-02-21T07:22:09;21.33;;;14.80;;
15669;SDS011;18524;45.190;5.732;2023-02-21T07:26:59;17.73;;;14.03;;
15669;SDS011;18524;45.190;5.732;2023-02-21T07:31:50;20.57;;;13.97;;
15669;SDS011;18524;45.190;5.732;2023-02-21T07:36:40;19.53;;;14.33;;
15669;SDS011;18524;45.190;5.732;2023-02-21T07:41:31;19.10;;;14.00;;
15669;SDS011;18524;45.190;5.732;2023-02-21T07:46:24;16.40;;;12.90;;
15669;SDS011;18524;45.190;5.732;2023-02-21T07:51:16;21.00;;;13.77;;
15669;SDS011;18524;45.190;5.732;2023-02-21T07:56:06;17.20;;;14.30;;
15669;SDS011;18524;45.190;5.732;2023-02-21T08:00:57;18.40;;;14.97;;
15669;SDS011;18524;45.190;5.732;2023-02-21T08:05:47;18.00;;;14.50;;
15669;SDS011;18524;45.190;5.732;2023-02-21T08:10:37;20.43;;;14.33;;
15669;SDS011;18524;45.190;5.732;2023-02-21T08:15:28;20.13;;;13.80;;
15669;SDS011;18524;45.190;5.732;2023-02-21T08:20:18;15.37;;;13.30;;
15669;SDS011;18524;45.190;5.732;2023-02-21T08:25:09;16.17;;;13.53;;
15669;SDS011;18524;45.190;5.732;2023-02-21T08:30:01;15.03;;;13.37;;
15669;SDS011;18524;45.190;5.732;2023-02-21T08:34:51;17.67;;;13.97;;
15669;SDS011;18524;45.190;5.732;2023-02-21T08:39:48;17.13;;;14.50;;
15669;SDS011;18524;45.190;5.732;2023-02-21T08:44:44;16.93;;;13.90;;
15669;SDS011;18524;45.190;5.732;2023-02-21T08:49:35;18.93;;;14.27;;
15669;SDS011;18524;45.190;5.732;2023-02-21T08:54:28;17.30;;;12.73;;
15669;SDS011;18524;45.190;5.732;2023-02-21T08:59:19;14.90;;;13.20;;
15669;SDS011;18524;45.190;5.732;2023-02-21T09:04:10;14.33;;;12.87;;
15669;SDS011;18524;45.190;5.732;2023-02-21T09:09:00;15.33;;;13.10;;
15669;SDS011;18524;45.190;5.732;2023-02-21T09:13:50;14.43;;;12.90;;
15669;SDS011;18524;45.190;5.732;2023-02-21T09:18:51;15.93;;;13.53;;
15669;SDS011;18524;45.190;5.732;2023-02-21T09:23:43;15.73;;;13.93;;
15669;SDS011;18524;45.190;5.732;2023-02-21T09:28:33;14.47;;;12.97;;
15669;SDS011;18524;45.190;5.732;2023-02-21T09:33:24;16.23;;;14.37;;
15669;SDS011;18524;45.190;5.732;2023-02-21T09:38:14;14.97;;;13.40;;
15669;SDS011;18524;45.190;5.732;2023-02-21T09:43:05;14.50;;;13.10;;
15669;SDS011;18524;45.190;5.732;2023-02-21T09:48:02;16.13;;;12.83;;
15669;SDS011;18524;45.190;5.732;2023-02-21T09:53:02;16.17;;;13.07;;
15669;SDS011;18524;45.190;5.732;2023-02-21T09:57:53;14.93;;;13.33;;
15669;SDS011;18524;45.190;5.732;2023-02-21T10:02:53;14.50;;;13.00;;
15669;SDS011;18524;45.190;5.732;2023-02-21T10:07:48;14.23;;;12.67;;
15669;SDS011;18524;45.190;5.732;2023-02-21T10:13:15;13.93;;;12.53;;
15669;SDS011;18524;45.190;5.732;2023-02-21T10:28:35;13.23;;;11.60;;
15669;SDS011;18524;45.190;5.732;2023-02-21T10:33:27;13.53;;;12.03;;
15669;SDS011;18524;45.190;5.732;2023-02-21T10:38:19;13.00;;;11.60;;
15669;SDS011;18524;45.190;5.732;2023-02-21T10:43:16;11.93;;;10.73;;
15669;SDS011;18524;45.190;5.732;2023-02-21T10:48:08;12.20;;;10.83;;
15669;SDS011;18524;45.190;5.732;2023-02-21T10:52:59;13.53;;;12.07;;
15669;SDS011;18524;45.190;5.732;2023-02-21T10:57:53;11.17;;;10.07;;
15669;SDS011;18524;45.190;5.732;2023-02-21T11:02:45;11.63;;;10.47;;
15669;SDS011;18524;45.190;5.732;2023-02-21T11:13:12;11.47;;;10.37;;
15669;SDS011;18524;45.190;5.732;2023-02-21T11:18:09;12.60;;;11.30;;
15669;SDS011;18524;45.190;5.732;2023-02-21T11:23:25;12.47;;;11.37;;
15669;SDS011;18524;45.190;5.732;2023-02-21T11:28:21;11.60;;;10.47;;
15669;SDS011;18524;45.190;5.732;2023-02-21T11:33:12;10.10;;;9.20;;
15669;SDS011;18524;45.190;5.732;2023-02-21T11:38:33;11.63;;;9.90;;
15669;SDS011;18524;45.190;5.732;2023-02-21T11:43:24;13.07;;;11.30;;
15669;SDS011;18524;45.190;5.732;2023-02-21T11:48:18;13.93;;;12.17;;
15669;SDS011;18524;45.190;5.732;2023-02-21T11:53:36;13.43;;;12.07;;
15669;SDS011;18524;45.190;5.732;2023-02-21T11:58:33;14.07;;;12.20;;
15669;SDS011;18524;45.190;5.732;2023-02-21T12:19:01;11.60;;;10.50;;
15669;SDS011;18524;45.190;5.732;2023-02-21T12:24:23;13.90;;;11.07;;
15669;SDS011;18524;45.190;5.732;2023-02-21T12:44:37;10.40;;;9.40;;
15669;SDS011;18524;45.190;5.732;2023-02-21T13:05:45;13.03;;;9.40;;
15669;SDS011;18524;45.190;5.732;2023-02-21T13:10:33;12.77;;;11.47;;
15669;SDS011;18524;45.190;5.732;2023-02-21T13:15:32;16.40;;;10.10;;
15669;SDS011;18524;45.190;5.732;2023-02-21T13:20:23;13.43;;;10.13;;
15669;SDS011;18524;45.190;5.732;2023-02-21T13:25:36;13.17;;;10.33;;
15669;SDS011;18524;45.190;5.732;2023-02-21T13:30:52;11.40;;;10.30;;
15669;SDS011;18524;45.190;5.732;2023-02-21T13:35:47;12.90;;;10.70;;
15669;SDS011;18524;45.190;5.732;2023-02-21T13:40:53;14.07;;;11.27;;
15669;SDS011;18524;45.190;5.732;2023-02-21T13:45:52;13.80;;;10.90;;
15669;SDS011;18524;45.190;5.732;2023-02-21T13:50:44;12.50;;;11.20;;
15669;SDS011;18524;45.190;5.732;2023-02-21T13:55:37;13.37;;;11.87;;
15669;SDS011;18524;45.190;5.732;2023-02-21T14:05:19;13.07;;;11.67;;
15669;SDS011;18524;45.190;5.732;2023-02-21T14:10:18;13.80;;;11.93;;
15669;SDS011;18524;45.190;5.732;2023-02-21T14:15:12;14.83;;;12.07;;
15669;SDS011;18524;45.190;5.732;2023-02-21T14:20:03;15.17;;;11.70;;
15669;SDS011;18524;45.190;5.732;2023-02-21T14:30:27;16.97;;;12.00;;
15669;SDS011;18524;45.190;5.732;2023-02-21T14:35:28;16.07;;;11.73;;
15669;SDS011;18524;45.190;5.732;2023-02-21T15:11:13;15.90;;;13.20;;
15669;SDS011;18524;45.190;5.732;2023-02-21T15:16:22;16.40;;;13.27;;
15669;SDS011;18524;45.190;5.732;2023-02-21T15:26:37;17.70;;;12.37;;
15669;SDS011;18524;45.190;5.732;2023-02-21T15:31:21;15.33;;;12.43;;
15669;SDS011;18524;45.190;5.732;2023-02-21T15:36:16;14.17;;;12.60;;
15669;SDS011;18524;45.190;5.732;2023-02-21T15:41:14;15.60;;;12.73;;
15669;SDS011;18524;45.190;5.732;2023-02-21T15:46:05;14.47;;;12.43;;
15669;SDS011;18524;45.190;5.732;2023-02-21T15:51:01;16.80;;;12.70;;
15669;SDS011;18524;45.190;5.732;2023-02-21T15:56:13;13.43;;;12.03;;
15669;SDS011;18524;45.190;5.732;2023-02-21T16:01:14;17.40;;;12.77;;
15669;SDS011;18524;45.190;5.732;2023-02-21T16:11:05;17.57;;;12.47;;
15669;SDS011;18524;45.190;5.732;2023-02-21T16:15:58;16.23;;;12.97;;
15669;SDS011;18524;45.190;5.732;2023-02-21T16:20:57;16.40;;;13.40;;
15669;SDS011;18524;45.190;5.732;2023-02-21T16:26:23;15.00;;;13.03;;
15669;SDS011;18524;45.190;5.732;2023-02-21T16:31:08;13.90;;;12.37;;
15669;SDS011;18524;45.190;5.732;2023-02-21T16:36:05;15.40;;;13.13;;
15669;SDS011;18524;45.190;5.732;2023-02-21T16:40:58;15.97;;;12.93;;
15669;SDS011;18524;45.190;5.732;2023-02-21T16:45:50;14.57;;;12.97;;
15669;SDS011;18524;45.190;5.732;2023-02-21T16:50:41;15.90;;;13.30;;
15669;SDS011;18524;45.190;5.732;2023-02-21T16:55:34;15.73;;;13.87;;
15669;SDS011;18524;45.190;5.732;2023-02-21T17:00:25;16.17;;;14.20;;
15669;SDS011;18524;45.190;5.732;2023-02-21T17:05:15;15.60;;;13.90;;
15669;SDS011;18524;45.190;5.732;2023-02-21T17:10:07;19.60;;;15.07;;
15669;SDS011;18524;45.190;5.732;2023-02-21T17:14:58;16.70;;;14.70;;
15669;SDS011;18524;45.190;5.732;2023-02-21T17:19:48;21.47;;;15.47;;
15669;SDS011;18524;45.190;5.732;2023-02-21T17:24:39;20.67;;;15.13;;
15669;SDS011;18524;45.190;5.732;2023-02-21T17:29:31;20.63;;;14.97;;
15669;SDS011;18524;45.190;5.732;2023-02-21T17:34:21;17.10;;;15.30;;
15669;SDS011;18524;45.190;5.732;2023-02-21T17:39:14;19.50;;;16.47;;
15669;SDS011;18524;45.190;5.732;2023-02-21T17:44:05;17.20;;;15.10;;
15669;SDS011;18524;45.190;5.732;2023-02-21T17:48:55;18.20;;;15.47;;
15669;SDS011;18524;45.190;5.732;2023-02-21T17:53:46;21.70;;;16.70;;
15669;SDS011;18524;45.190;5.732;2023-02-21T17:58:36;19.70;;;15.97;;
15669;SDS011;18524;45.190;5.732;2023-02-21T18:03:27;19.30;;;16.47;;
15669;SDS011;18524;45.190;5.732;2023-02-21T18:08:17;18.97;;;15.83;;
15669;SDS011;18524;45.190;5.732;2023-02-21T18:13:08;21.23;;;16.53;;
15669;SDS011;18524;45.190;5.732;2023-02-21T18:17:58;22.40;;;16.50;;
15669;SDS011;18524;45.190;5.732;2023-02-21T18:22:53;22.60;;;17.03;;
15669;SDS011;18524;45.190;5.732;2023-02-21T18:27:44;18.90;;;16.80;;
15669;SDS011;18524;45.190;5.732;2023-02-21T18:32:34;23.27;;;16.77;;
15669;SDS011;18524;45.190;5.732;2023-02-21T18:37:25;20.83;;;17.23;;
15669;SDS011;18524;45.190;5.732;2023-02-21T18:42:15;21.20;;;16.57;;
15669;SDS011;18524;45.190;5.732;2023-02-21T18:47:07;20.53;;;16.20;;
15669;SDS011;18524;45.190;5.732;2023-02-21T18:51:57;19.67;;;16.77;;
15669;SDS011;18524;45.190;5.732;2023-02-21T18:56:50;21.03;;;16.17;;
15669;SDS011;18524;45.190;5.732;2023-02-21T19:01:41;19.53;;;15.57;;
15669;SDS011;18524;45.190;5.732;2023-02-21T19:06:32;20.77;;;15.93;;
15669;SDS011;18524;45.190;5.732;2023-02-21T19:11:22;20.03;;;15.70;;
15669;SDS011;18524;45.190;5.732;2023-02-21T19:16:13;22.07;;;16.17;;
15669;SDS011;18524;45.190;5.732;2023-02-21T19:21:03;18.60;;;15.93;;
15669;SDS011;18524;45.190;5.732;2023-02-21T19:25:54;18.27;;;15.90;;
15669;SDS011;18524;45.190;5.732;2023-02-21T19:30:44;20.73;;;16.30;;
15669;SDS011;18524;45.190;5.732;2023-02-21T19:35:35;20.20;;;15.40;;
15669;SDS011;18524;45.190;5.732;2023-02-21T19:40:26;18.43;;;15.30;;
15669;SDS011;18524;45.190;5.732;2023-02-21T19:45:17;19.97;;;16.10;;
15669;SDS011;18524;45.190;5.732;2023-02-21T19:50:08;20.20;;;16.20;;
15669;SDS011;18524;45.190;5.732;2023-02-21T19:54:59;21.97;;;16.90;;
15669;SDS011;18524;45.190;5.732;2023-02-21T19:59:50;17.13;;;15.30;;
15669;SDS011;18524;45.190;5.732;2023-02-21T20:04:41;21.63;;;16.40;;
15669;SDS011;18524;45.190;5.732;2023-02-21T20:09:32;20.97;;;16.57;;
15669;SDS011;18524;45.190;5.732;2023-02-21T20:14:25;20.77;;;18.57;;
15669;SDS011;18524;45.190;5.732;2023-02-21T20:19:16;23.60;;;17.50;;
15669;SDS011;18524;45.190;5.732;2023-02-21T20:24:07;21.30;;;18.13;;
15669;SDS011;18524;45.190;5.732;2023-02-21T20:28:59;22.03;;;17.73;;
15669;SDS011;18524;45.190;5.732;2023-02-21T20:33:49;22.47;;;18.40;;
15669;SDS011;18524;45.190;5.732;2023-02-21T20:38:40;23.03;;;18.53;;
15669;SDS011;18524;45.190;5.732;2023-02-21T20:43:30;23.07;;;18.43;;
15669;SDS011;18524;45.190;5.732;2023-02-21T20:48:21;23.23;;;18.20;;
15669;SDS011;18524;45.190;5.732;2023-02-21T20:53:14;22.67;;;18.90;;
15669;SDS011;18524;45.190;5.732;2023-02-21T20:58:07;23.03;;;18.30;;
15669;SDS011;18524;45.190;5.732;2023-02-21T21:02:59;27.93;;;22.87;;
15669;SDS011;18524;45.190;5.732;2023-02-21T21:07:49;38.63;;;28.60;;
15669;SDS011;18524;45.190;5.732;2023-02-21T21:12:41;32.43;;;25.40;;
15669;SDS011;18524;45.190;5.732;2023-02-21T21:17:32;27.37;;;20.90;;
15669;SDS011;18524;45.190;5.732;2023-02-21T21:22:23;24.87;;;19.97;;
15669;SDS011;18524;45.190;5.732;2023-02-21T21:27:17;24.93;;;19.23;;
15669;SDS011;18524;45.190;5.732;2023-02-21T21:32:12;25.37;;;19.93;;
15669;SDS011;18524;45.190;5.732;2023-02-21T21:37:07;25.50;;;19.43;;
15669;SDS011;18524;45.190;5.732;2023-02-21T21:42:01;25.00;;;19.80;;
15669;SDS011;18524;45.190;5.732;2023-02-21T21:46:54;23.17;;;19.30;;
15669;SDS011;18524;45.190;5.732;2023-02-21T21:51:45;25.90;;;20.13;;
15669;SDS011;18524;45.190;5.732;2023-02-21T21:56:40;28.53;;;20.73;;
15669;SDS011;18524;45.190;5.732;2023-02-21T22:01:31;30.53;;;24.90;;
15669;SDS011;18524;45.190;5.732;2023-02-21T22:06:21;28.30;;;21.40;;
15669;SDS011;18524;45.190;5.732;2023-02-21T22:11:11;25.23;;;19.70;;
15669;SDS011;18524;45.190;5.732;2023-02-21T22:16:02;27.70;;;19.63;;
15669;SDS011;18524;45.190;5.732;2023-02-21T22:20:52;27.63;;;20.27;;
15669;SDS011;18524;45.190;5.732;2023-02-21T22:25:43;24.30;;;19.77;;
15669;SDS011;18524;45.190;5.732;2023-02-21T22:30:34;28.43;;;20.07;;
15669;SDS011;18524;45.190;5.732;2023-02-21T22:35:26;28.57;;;21.63;;
15669;SDS011;18524;45.190;5.732;2023-02-21T22:40:18;28.47;;;22.70;;
15669;SDS011;18524;45.190;5.732;2023-02-21T22:45:14;31.03;;;23.83;;
15669;SDS011;18524;45.190;5.732;2023-02-21T22:50:06;28.70;;;21.93;;
15669;SDS011;18524;45.190;5.732;2023-02-21T22:54:56;28.47;;;22.43;;
15669;SDS011;18524;45.190;5.732;2023-02-21T22:59:47;28.60;;;22.43;;
15669;SDS011;18524;45.190;5.732;2023-02-21T23:04:37;25.13;;;20.93;;
15669;SDS011;18524;45.190;5.732;2023-02-21T23:09:28;27.33;;;20.63;;
15669;SDS011;18524;45.190;5.732;2023-02-21T23:14:20;26.40;;;20.30;;
15669;SDS011;18524;45.190;5.732;2023-02-21T23:19:11;23.53;;;19.60;;
15669;SDS011;18524;45.190;5.732;2023-02-21T23:24:01;25.13;;;19.63;;
15669;SDS011;18524;45.190;5.732;2023-02-21T23:28:52;25.07;;;20.40;;
15669;SDS011;18524;45.190;5.732;2023-02-21T23:33:43;24.30;;;19.97;;
15669;SDS011;18524;45.190;5.732;2023-02-21T23:38:37;22.40;;;19.03;;
15669;SDS011;18524;45.190;5.732;2023-02-21T23:43:28;22.70;;;18.50;;
15669;SDS011;18524;45.190;5.732;2023-02-21T23:48:23;25.50;;;19.50;;
15669;SDS011;18524;45.190;5.732;2023-02-21T23:53:23;21.93;;;18.37;;
15669;SDS011;18524;45.190;5.732;2023-02-21T23:58:16;21.73;;;17.63;;
